Perkinstown, Wisconsin
Current Conditions -  °F | °C
As of 4:55 AM on Friday 28 Nov 2014 (Local Time) from KMDZ Reporting Station
Light Snow Light Snow  
Wind Chill: -2°   Ceiling: 4300
Heat Index:   Visibility: 5mi
Dew Point:   Wind: 5mph
Humidity: 84%   Direction: 130°SE
Pressure: 30.14"   Gusts: NA
Location:  45.2044°N, 90.4212°W
Report Text: KMDZ 281055Z AUTO 13004KT 5SM -SN OVC043 M14/M16 A3014 RMK AO2 T11421163
Loading
Personal Weather Stations






























Interactive Weather Map New forecast layout! Learn more

10-Day Weather Forecast

Advertisements
Track Severe Weather on mobile